YXX weather

Abbotsford Airport
Abbotsford, British Columbia, Canada

Public forecast

Using degrees Celsius for public forecast. Weather courtesy of forecast.io.

Current aviation weather report (METAR) for Abbotsford Airport

Retrieved 2019/12/06 12:00 UTC (46 minutes ago):

CYXX 061200Z 01008KT 15SM FEW045 BKN060 OVC100 04/03 A2994 RMK SC1SC4AC3 SLP142

Aviation forecast (TAF) for Abbotsford Airport

Retrieved 2019/12/06 12:39 UTC (7 minutes ago):

TAF CYXX 061138Z 0612/0712 04006KT P6SM FEW040 BKN060 OVC080 TEMPO 0612/0618 6SM -RA BR SCT020 OVC040 FM061800 05006KT P6SM FEW020 BKN060 FM070000 06008KT P6SM BKN060 TEMPO 0700/0709 P6SM -RA OVC060 FM070900 08006KT 6SM -SHRA OVC015 RMK NXT FCST BY 061800Z